Time;durP1;ratioP1;P1;durP2;ratioP2;P2;SDS_P1;SDS_P2;PMS_P1;PMS_P2;Temp;Humidity;BMP_temperature;BMP_pressure;BME280_temperature;BME280_humidity;BME280_pressure;Samples;Min_cycle;Max_cycle;Signal;HPM_P1;HPM_P2
2022/05/17 00:00:53;;;;;;;8.48;3.58;;;;;;;-145.50;100.00;65435.88;5064359;28;20047;-65
2022/05/17 00:03:20;;;;;;;9.35;3.38;;;;;;;-145.50;100.00;65435.88;5066654;28;20594;-65
2022/05/17 00:05:47;;;;;;;12.60;3.42;;;;;;;-145.50;100.00;65435.88;5057057;28;20098;-65
2022/05/17 00:08:14;;;;;;;7.55;3.22;;;;;;;-145.50;100.00;65435.88;5071261;28;20055;-66
2022/05/17 00:10:42;;;;;;;10.13;4.17;;;;;;;-145.50;100.00;65435.88;5072605;28;20130;-65
2022/05/17 00:13:09;;;;;;;10.53;3.63;;;;;;;-145.50;100.00;65435.88;5058285;28;20047;-66
2022/05/17 00:15:39;;;;;;;8.60;3.15;;;;;;;-145.50;100.00;65435.88;5069749;28;20455;-65
2022/05/17 00:18:06;;;;;;;9.80;3.50;;;;;;;-145.50;100.00;65435.88;5055477;28;20048;-63
2022/05/17 00:20:33;;;;;;;9.00;3.72;;;;;;;-145.50;100.00;65435.88;5067460;28;20076;-65
2022/05/17 00:22:59;;;;;;;9.35;3.67;;;;;;;-145.50;100.00;65435.88;5058097;28;20060;-66
2022/05/17 00:25:26;;;;;;;12.75;3.25;;;;;;;-145.50;100.00;65435.88;5065891;28;20569;-66
2022/05/17 00:27:52;;;;;;;10.57;3.45;;;;;;;-145.50;100.00;65435.88;5071143;28;20048;-64
2022/05/17 00:30:19;;;;;;;7.45;3.47;;;;;;;-145.50;100.00;65435.88;5064141;28;20819;-66
2022/05/17 00:32:46;;;;;;;8.20;3.45;;;;;;;-145.50;100.00;65435.88;5052577;28;20164;-66
2022/05/17 00:35:12;;;;;;;7.20;3.92;;;;;;;-145.50;100.00;65435.88;5050746;28;20048;-66
2022/05/17 00:37:39;;;;;;;9.52;3.63;;;;;;;-145.50;100.00;65435.88;5070004;28;20174;-66
2022/05/17 00:40:07;;;;;;;8.10;3.50;;;;;;;-145.50;100.00;65435.88;5058331;28;20063;-64
2022/05/17 00:42:33;;;;;;;8.18;3.33;;;;;;;-145.50;100.00;65435.88;5058396;28;20365;-65
2022/05/17 00:45:00;;;;;;;8.05;3.03;;;;;;;-145.50;100.00;65435.88;5060055;28;20048;-67
2022/05/17 00:47:30;;;;;;;11.38;3.60;;;;;;;-145.50;100.00;65435.88;5057206;28;20139;-66
2022/05/17 00:50:26;;;;;;;7.63;3.35;;;;;;;-145.50;100.00;65435.88;5063185;28;20059;-66
2022/05/17 00:52:58;;;;;;;9.80;3.90;;;;;;;-145.50;100.00;65435.88;5044938;28;20056;-65
2022/05/17 00:55:33;;;;;;;9.50;4.25;;;;;;;-145.50;100.00;65435.88;5062611;28;20116;-66
2022/05/17 00:58:16;;;;;;;8.75;4.00;;;;;;;-145.50;100.00;65435.88;5061458;28;20054;-65
2022/05/17 01:01:02;;;;;;;9.40;3.53;;;;;;;-145.50;100.00;65435.88;5068889;28;20131;-65
2022/05/17 01:04:07;;;;;;;11.05;4.30;;;;;;;-145.50;100.00;65435.88;5056322;28;20125;-64
2022/05/17 01:06:47;;;;;;;9.85;3.70;;;;;;;-145.50;100.00;65435.88;5060170;28;20122;-67
2022/05/17 01:09:13;;;;;;;8.38;3.80;;;;;;;-145.50;100.00;65435.88;5057165;28;20062;-66
2022/05/17 01:11:40;;;;;;;10.55;4.10;;;;;;;-145.50;100.00;65435.88;5058666;28;20055;-66
2022/05/17 01:16:53;;;;;;;7.65;4.28;;;;;;;-145.50;100.00;65435.88;5069479;28;20060;-66
2022/05/17 01:19:20;;;;;;;9.82;4.07;;;;;;;-145.50;100.00;65435.88;5071708;28;20410;-65
2022/05/17 01:21:47;;;;;;;8.02;4.43;;;;;;;-145.50;100.00;65435.88;5055171;28;20052;-66
2022/05/17 01:24:13;;;;;;;8.00;4.05;;;;;;;-145.50;100.00;65435.88;5064028;28;20052;-66
2022/05/17 01:26:42;;;;;;;6.15;3.55;;;;;;;-145.50;100.00;65435.88;5062849;28;20076;-64
2022/05/17 01:29:11;;;;;;;8.23;3.90;;;;;;;-145.50;100.00;65435.88;5059759;28;20058;-65
2022/05/17 01:31:38;;;;;;;7.40;3.90;;;;;;;-145.50;100.00;65435.88;5063676;28;20359;-64
2022/05/17 01:34:10;;;;;;;4.50;3.00;;;;;;;-145.50;100.00;65435.88;5052534;28;20052;-66
2022/05/17 01:36:39;;;;;;;8.98;4.00;;;;;;;-145.50;100.00;65435.88;5073918;28;20127;-65
2022/05/17 01:39:05;;;;;;;8.20;3.83;;;;;;;-145.50;100.00;65435.88;5053298;28;20139;-65
2022/05/17 01:41:32;;;;;;;7.10;3.78;;;;;;;-145.50;100.00;65435.88;5057422;28;20048;-66
2022/05/17 01:43:59;;;;;;;9.30;4.25;;;;;;;-145.50;100.00;65435.88;5054937;28;20057;-66
2022/05/17 01:46:26;;;;;;;8.85;3.97;;;;;;;-145.50;100.00;65435.88;5071353;28;20126;-65
2022/05/17 01:48:53;;;;;;;6.82;3.78;;;;;;;-145.50;100.00;65435.88;5077112;28;20048;-67
2022/05/17 01:51:20;;;;;;;10.10;4.07;;;;;;;-145.50;100.00;65435.88;5060712;28;20047;-65
2022/05/17 01:53:47;;;;;;;8.70;4.55;;;;;;;-145.50;100.00;65435.88;5062635;28;20131;-66
2022/05/17 01:56:14;;;;;;;8.60;3.60;;;;;;;-145.50;100.00;65435.88;5059263;28;20109;-66
2022/05/17 01:58:41;;;;;;;9.27;4.22;;;;;;;-145.50;100.00;65435.88;5066129;28;20055;-65
2022/05/17 02:01:09;;;;;;;9.43;4.40;;;;;;;-145.50;100.00;65435.88;5063142;28;20055;-66
2022/05/17 02:03:36;;;;;;;7.43;3.83;;;;;;;-145.50;100.00;65435.88;5059179;28;20135;-66
2022/05/17 02:06:03;;;;;;;10.82;4.13;;;;;;;-145.50;100.00;65435.88;5069866;28;20468;-66
2022/05/17 02:08:30;;;;;;;10.07;4.28;;;;;;;-145.50;100.00;65435.88;5046766;28;20133;-66
2022/05/17 02:10:56;;;;;;;8.35;4.22;;;;;;;-145.50;100.00;65435.88;5058107;28;20084;-65
2022/05/17 02:13:23;;;;;;;11.30;3.85;;;;;;;-145.50;100.00;65435.88;5061533;28;20446;-65
2022/05/17 02:15:49;;;;;;;8.20;4.15;;;;;;;-145.50;100.00;65435.88;5064634;28;20047;-65
2022/05/17 02:18:16;;;;;;;8.07;4.35;;;;;;;-145.50;100.00;65435.88;5062040;28;20048;-66
2022/05/17 02:20:42;;;;;;;6.28;4.05;;;;;;;-145.50;100.00;65435.88;5049517;28;20060;-66
2022/05/17 02:23:09;;;;;;;9.32;3.63;;;;;;;-145.50;100.00;65435.88;5071186;28;20078;-66
2022/05/17 02:25:36;;;;;;;7.07;3.67;;;;;;;-145.50;100.00;65435.88;5061327;28;20048;-66
2022/05/17 02:28:03;;;;;;;9.20;3.45;;;;;;;-145.50;100.00;65435.88;5062748;28;20140;-67
2022/05/17 02:30:31;;;;;;;10.65;3.88;;;;;;;-145.50;100.00;65435.88;5057067;28;20058;-64
2022/05/17 02:32:58;;;;;;;13.97;4.30;;;;;;;-145.50;100.00;65435.88;5077596;28;20052;-65
2022/05/17 02:35:25;;;;;;;11.75;5.35;;;;;;;-145.50;100.00;65435.88;5064627;28;20284;-65
2022/05/17 02:37:51;;;;;;;8.10;3.83;;;;;;;-145.50;100.00;65435.88;5056054;28;21065;-66
2022/05/17 02:40:18;;;;;;;11.35;4.22;;;;;;;-145.50;100.00;65435.88;5071854;28;20052;-66
2022/05/17 02:42:44;;;;;;;7.90;4.13;;;;;;;-145.50;100.00;65435.88;5052019;28;20143;-66
2022/05/17 02:45:11;;;;;;;9.73;4.57;;;;;;;-145.50;100.00;65435.88;5061487;28;20052;-66
2022/05/17 02:47:38;;;;;;;11.50;4.55;;;;;;;-145.50;100.00;65435.88;5073774;28;20055;-65
2022/05/17 02:50:05;;;;;;;9.75;4.40;;;;;;;-145.50;100.00;65435.88;5078635;28;20553;-66
2022/05/17 02:52:32;;;;;;;9.83;4.47;;;;;;;-145.50;100.00;65435.88;5057555;28;20524;-65
2022/05/17 02:54:58;;;;;;;12.35;4.70;;;;;;;-145.50;100.00;65435.88;5056075;28;20373;-66
2022/05/17 02:57:24;;;;;;;8.20;4.40;;;;;;;-145.50;100.00;65435.88;5064846;28;20049;-65
2022/05/17 02:59:51;;;;;;;6.68;4.05;;;;;;;-145.50;100.00;65435.88;5063260;28;20149;-65
2022/05/17 03:02:17;;;;;;;9.23;4.35;;;;;;;-145.50;100.00;65435.88;5059074;28;20167;-66
2022/05/17 03:04:45;;;;;;;12.45;4.47;;;;;;;-145.50;100.00;65435.88;5059312;28;20373;-66
2022/05/17 03:07:11;;;;;;;18.15;4.35;;;;;;;-145.50;100.00;65435.88;5060237;28;20076;-66
2022/05/17 03:09:38;;;;;;;7.50;3.88;;;;;;;-145.50;100.00;65435.88;5080528;28;20139;-66
2022/05/17 03:12:05;;;;;;;8.70;4.47;;;;;;;-145.50;100.00;65435.88;5069346;28;20127;-66
2022/05/17 03:14:31;;;;;;;11.02;4.63;;;;;;;-145.50;100.00;65435.88;5065300;28;20078;-65
2022/05/17 03:16:58;;;;;;;8.30;4.78;;;;;;;-145.50;100.00;65435.88;5056211;28;20058;-65
2022/05/17 03:19:24;;;;;;;8.57;4.13;;;;;;;-145.50;100.00;65435.88;5060978;28;20036;-65
2022/05/17 03:21:51;;;;;;;9.07;4.22;;;;;;;-145.50;100.00;65435.88;5054301;28;20167;-65
2022/05/17 03:24:17;;;;;;;11.23;4.47;;;;;;;-145.50;100.00;65435.88;5071923;28;20045;-66
2022/05/17 03:27:05;;;;;;;10.43;5.00;;;;;;;-145.50;100.00;65435.88;5059750;28;20672;-64
2022/05/17 03:29:31;;;;;;;9.40;4.28;;;;;;;-145.50;100.00;65435.88;5059084;28;20049;-66
2022/05/17 03:31:59;;;;;;;10.27;4.90;;;;;;;-145.50;100.00;65435.88;5060737;28;20513;-67
2022/05/17 03:34:25;;;;;;;8.80;4.47;;;;;;;-145.50;100.00;65435.88;5047511;28;20080;-66
2022/05/17 03:36:52;;;;;;;9.02;4.70;;;;;;;-145.50;100.00;65435.88;5075611;28;20075;-65
2022/05/17 03:39:18;;;;;;;16.42;4.50;;;;;;;-145.50;100.00;65435.88;5060573;28;20559;-66
2022/05/17 03:41:45;;;;;;;9.30;4.65;;;;;;;-145.50;100.00;65435.88;5059877;28;20057;-66
2022/05/17 03:44:11;;;;;;;9.85;4.43;;;;;;;-145.50;100.00;65435.88;5051360;28;20131;-65
2022/05/17 03:46:38;;;;;;;7.57;4.40;;;;;;;-145.50;100.00;65435.88;5064806;28;20058;-65
2022/05/17 03:49:08;;;;;;;8.10;3.78;;;;;;;-145.50;100.00;65435.88;5079470;28;20056;-65
2022/05/17 03:51:35;;;;;;;9.73;4.95;;;;;;;-145.50;100.00;65435.88;5069889;28;20597;-65
2022/05/17 03:54:21;;;;;;;12.10;4.72;;;;;;;-145.50;100.00;65435.88;5063342;28;20163;-65
2022/05/17 03:57:42;;;;;;;9.45;4.07;;;;;;;-145.50;100.00;65435.88;5032271;28;20052;-65
2022/05/17 04:00:29;;;;;;;11.18;4.90;;;;;;;-145.50;100.00;65435.88;5034396;28;20052;-66
2022/05/17 04:02:56;;;;;;;10.70;5.15;;;;;;;-145.50;100.00;65435.88;5050123;28;20050;-65
2022/05/17 04:05:22;;;;;;;7.80;4.20;;;;;;;-145.50;100.00;65435.88;5062993;28;20056;-66
2022/05/17 04:07:49;;;;;;;13.13;4.43;;;;;;;-145.50;100.00;65435.88;5067471;28;20110;-65
2022/05/17 04:10:16;;;;;;;11.52;4.25;;;;;;;-145.50;100.00;65435.88;5065534;28;20139;-65
2022/05/17 04:12:43;;;;;;;7.78;4.32;;;;;;;-145.50;100.00;65435.88;5063438;28;20131;-66
2022/05/17 04:15:14;;;;;;;8.38;4.60;;;;;;;-145.50;100.00;65435.88;5050282;28;20809;-66
2022/05/17 04:17:40;;;;;;;9.35;4.30;;;;;;;-145.50;100.00;65435.88;5066728;28;20113;-66
2022/05/17 04:20:13;;;;;;;6.30;4.00;;;;;;;-145.50;100.00;65435.88;5072206;28;20448;-66
2022/05/17 04:22:45;;;;;;;10.97;4.83;;;;;;;-145.50;100.00;65435.88;5048462;28;20124;-66
2022/05/17 04:25:13;;;;;;;8.23;4.93;;;;;;;-145.50;100.00;65435.88;5079590;28;20051;-66
2022/05/17 04:27:39;;;;;;;8.52;4.43;;;;;;;-145.50;100.00;65435.88;5050006;28;20147;-66
2022/05/17 04:30:06;;;;;;;9.57;4.80;;;;;;;-145.50;100.00;65435.88;5062054;28;20052;-65
2022/05/17 04:32:32;;;;;;;8.02;4.32;;;;;;;-145.50;100.00;65435.88;5063080;28;20048;-64
2022/05/17 04:35:00;;;;;;;7.22;4.10;;;;;;;-145.50;100.00;65435.88;5063838;28;20155;-65
2022/05/17 04:37:28;;;;;;;10.07;4.60;;;;;;;-145.50;100.00;65435.88;5068450;28;20048;-68
2022/05/17 04:39:55;;;;;;;6.50;4.10;;;;;;;-145.50;100.00;65435.88;5064080;28;20044;-67
2022/05/17 04:42:21;;;;;;;9.75;4.90;;;;;;;-145.50;100.00;65435.88;5074705;28;20280;-66
2022/05/17 04:44:48;;;;;;;7.97;4.00;;;;;;;-145.50;100.00;65435.88;5069264;28;20056;-66
2022/05/17 04:47:14;;;;;;;8.90;4.55;;;;;;;-145.50;100.00;65435.88;5072890;28;20066;-65
2022/05/17 04:49:41;;;;;;;6.30;4.18;;;;;;;-145.50;100.00;65435.88;5054465;28;20041;-65
2022/05/17 04:52:08;;;;;;;9.57;4.60;;;;;;;-145.50;100.00;65435.88;5059569;28;20529;-65
2022/05/17 04:54:35;;;;;;;9.15;4.60;;;;;;;-145.50;100.00;65435.88;5052817;28;20054;-65
2022/05/17 04:57:02;;;;;;;10.38;4.82;;;;;;;-145.50;100.00;65435.88;5057767;28;20079;-65
2022/05/17 04:59:30;;;;;;;8.68;5.10;;;;;;;-145.50;100.00;65435.88;5063502;28;20748;-65
2022/05/17 05:01:57;;;;;;;11.20;5.85;;;;;;;-145.50;100.00;65435.88;5067418;28;20160;-66
2022/05/17 05:04:23;;;;;;;9.98;5.15;;;;;;;-145.50;100.00;65435.88;5065510;28;20051;-66
2022/05/17 05:06:50;;;;;;;8.55;5.15;;;;;;;-145.50;100.00;65435.88;5056544;28;20564;-66
2022/05/17 05:09:18;;;;;;;10.10;5.80;;;;;;;-145.50;100.00;65435.88;5055131;28;20423;-64
2022/05/17 05:11:46;;;;;;;11.43;4.97;;;;;;;-145.50;100.00;65435.88;5051417;28;20728;-66
2022/05/17 05:14:12;;;;;;;10.43;5.00;;;;;;;-145.50;100.00;65435.88;5048434;28;20624;-66
2022/05/17 05:16:39;;;;;;;10.95;5.78;;;;;;;-145.50;100.00;65435.88;5067293;28;20052;-65
2022/05/17 05:19:05;;;;;;;9.73;5.75;;;;;;;-145.50;100.00;65435.88;5066844;28;20135;-66
2022/05/17 05:21:32;;;;;;;8.93;5.18;;;;;;;-145.50;100.00;65435.88;5066820;28;20064;-65
2022/05/17 05:23:58;;;;;;;15.13;5.45;;;;;;;-145.50;100.00;65435.88;5047494;28;20154;-66
2022/05/17 05:26:25;;;;;;;14.38;6.25;;;;;;;-145.50;100.00;65435.88;5061045;28;20086;-66
2022/05/17 05:28:51;;;;;;;10.98;5.95;;;;;;;-145.50;100.00;65435.88;5069254;28;20850;-66
2022/05/17 05:31:18;;;;;;;11.00;5.90;;;;;;;-145.50;100.00;65435.88;5059316;28;20048;-66
2022/05/17 05:33:44;;;;;;;11.70;6.05;;;;;;;-145.50;100.00;65435.88;5073605;28;20136;-66
2022/05/17 05:36:11;;;;;;;10.85;6.10;;;;;;;-145.50;100.00;65435.88;5063665;28;20052;-66
2022/05/17 05:38:38;;;;;;;11.75;6.72;;;;;;;-145.50;100.00;65435.88;5069466;28;20044;-66
2022/05/17 05:41:04;;;;;;;13.57;7.15;;;;;;;-145.50;100.00;65435.88;5069917;28;20090;-65
2022/05/17 05:43:31;;;;;;;14.60;8.20;;;;;;;-145.50;100.00;65435.88;5065162;28;20466;-66
2022/05/17 05:45:57;;;;;;;12.60;7.35;;;;;;;-145.50;100.00;65435.88;5067200;28;20139;-66
2022/05/17 05:48:23;;;;;;;13.52;7.63;;;;;;;-145.50;100.00;65435.88;5065067;28;20083;-66
2022/05/17 05:50:52;;;;;;;11.93;6.80;;;;;;;-145.50;100.00;65435.88;5063349;28;20565;-66
2022/05/17 05:53:20;;;;;;;11.88;6.65;;;;;;;-145.50;100.00;65435.88;5063010;28;20060;-66
2022/05/17 05:56:03;;;;;;;10.63;7.18;;;;;;;-145.50;100.00;65435.88;5073018;28;20139;-66
2022/05/17 05:58:31;;;;;;;10.98;6.60;;;;;;;-145.50;100.00;65435.88;5069572;28;20090;-66
2022/05/17 06:00:58;;;;;;;13.52;7.43;;;;;;;-145.50;100.00;65435.88;5058289;28;20424;-66
2022/05/17 06:03:26;;;;;;;15.05;7.55;;;;;;;-145.50;100.00;65435.88;5060309;28;20058;-66
2022/05/17 06:05:53;;;;;;;12.00;6.93;;;;;;;-145.50;100.00;65435.88;5067627;28;20139;-66
2022/05/17 06:08:21;;;;;;;14.18;7.60;;;;;;;-145.50;100.00;65435.88;5077491;28;20062;-66
2022/05/17 06:10:48;;;;;;;12.53;7.27;;;;;;;-145.50;100.00;65435.88;5061009;28;20457;-65
2022/05/17 06:13:16;;;;;;;16.15;8.60;;;;;;;-145.50;100.00;65435.88;5072448;28;20277;-66
2022/05/17 06:15:43;;;;;;;15.02;7.22;;;;;;;-145.50;100.00;65435.88;5064776;28;20083;-66
2022/05/17 06:18:10;;;;;;;13.77;7.50;;;;;;;-145.50;100.00;65435.88;5057690;28;20056;-66
2022/05/17 06:20:37;;;;;;;16.33;8.30;;;;;;;-145.50;100.00;65435.88;5057134;28;20047;-66
2022/05/17 06:23:04;;;;;;;15.82;7.43;;;;;;;-145.50;100.00;65435.88;5059839;28;20088;-66
2022/05/17 06:25:32;;;;;;;10.63;7.85;;;;;;;-145.50;100.00;65435.88;5071506;28;20147;-66
2022/05/17 06:27:59;;;;;;;11.52;6.80;;;;;;;-145.50;100.00;65435.88;5054682;28;20135;-65
2022/05/17 06:30:26;;;;;;;15.07;8.00;;;;;;;-145.50;100.00;65435.88;5069385;28;20039;-67
2022/05/17 06:32:52;;;;;;;13.73;7.53;;;;;;;-145.50;100.00;65435.88;5070134;28;20341;-66
2022/05/17 06:35:19;;;;;;;15.73;7.68;;;;;;;-145.50;100.00;65435.88;5070872;28;20062;-66
2022/05/17 06:37:46;;;;;;;13.40;7.60;;;;;;;-145.50;100.00;65435.88;5101210;28;20099;-66
2022/05/17 06:40:13;;;;;;;13.93;8.40;;;;;;;-145.50;100.00;65435.88;5093852;28;20043;-66
2022/05/17 06:42:40;;;;;;;19.75;7.90;;;;;;;-145.50;100.00;65435.88;5077925;28;20132;-66
2022/05/17 06:45:08;;;;;;;21.05;8.65;;;;;;;-145.50;100.00;65435.88;5053052;28;20044;-66
2022/05/17 06:47:34;;;;;;;15.30;8.50;;;;;;;-145.50;100.00;65435.88;5058977;28;20107;-66
2022/05/17 06:50:01;;;;;;;14.82;8.35;;;;;;;-145.50;100.00;65435.88;5069230;28;20047;-65
2022/05/17 06:52:28;;;;;;;13.98;8.18;;;;;;;-145.50;100.00;65435.88;5064611;28;20046;-67
2022/05/17 06:54:55;;;;;;;12.35;6.63;;;;;;;-145.50;100.00;65435.88;5061191;28;20743;-65
2022/05/17 06:57:22;;;;;;;15.52;6.97;;;;;;;-145.50;100.00;65435.88;5053375;28;20053;-67
2022/05/17 06:59:49;;;;;;;14.20;6.78;;;;;;;-145.50;100.00;65435.88;5066967;28;20056;-66
2022/05/17 07:02:16;;;;;;;12.40;7.05;;;;;;;-145.50;100.00;65435.88;5068785;28;20507;-67
2022/05/17 07:04:43;;;;;;;13.50;6.68;;;;;;;-145.50;100.00;65435.88;5063768;28;20052;-66
2022/05/17 07:07:10;;;;;;;11.90;6.88;;;;;;;-145.50;100.00;65435.88;5058701;28;20055;-66
2022/05/17 07:09:37;;;;;;;13.05;6.78;;;;;;;-145.50;100.00;65435.88;5074058;28;20127;-65
2022/05/17 07:14:50;;;;;;;13.63;6.55;;;;;;;-145.50;100.00;65435.88;5069596;28;20357;-67
2022/05/17 07:17:21;;;;;;;13.50;6.43;;;;;;;-145.50;100.00;65435.88;5078076;28;20052;-66
2022/05/17 07:19:48;;;;;;;13.55;6.38;;;;;;;-145.50;100.00;65435.88;5053971;28;20080;-65
2022/05/17 07:22:15;;;;;;;15.00;5.10;;;;;;;-145.50;100.00;65435.88;5062848;28;20063;-66
2022/05/17 07:24:44;;;;;;;14.52;6.57;;;;;;;-145.50;100.00;65435.88;5077536;28;20039;-67
2022/05/17 07:27:10;;;;;;;13.13;6.57;;;;;;;-145.50;100.00;65435.88;5060459;28;20052;-66
2022/05/17 07:29:46;;;;;;;12.07;6.57;;;;;;;-145.50;100.00;65435.88;5051221;28;20090;-66
2022/05/17 07:32:12;;;;;;;16.85;7.07;;;;;;;-145.50;100.00;65435.88;5074528;28;20063;-66
2022/05/17 07:34:39;;;;;;;13.15;6.90;;;;;;;-145.50;100.00;65435.88;5081564;28;20044;-67
2022/05/17 07:37:06;;;;;;;13.68;7.03;;;;;;;-145.50;100.00;65435.88;5074341;28;20146;-66
2022/05/17 07:39:33;;;;;;;14.27;7.10;;;;;;;-145.50;100.00;65435.88;5081940;28;20064;-67
2022/05/17 07:42:04;;;;;;;14.23;7.38;;;;;;;-145.50;100.00;65435.88;5070624;28;20084;-66
2022/05/17 07:44:31;;;;;;;11.73;6.35;;;;;;;-145.50;100.00;65435.88;5077318;28;20052;-66
2022/05/17 07:46:58;;;;;;;11.60;6.90;;;;;;;-145.50;100.00;65435.88;5073544;28;20852;-66
2022/05/17 07:49:24;;;;;;;15.95;7.18;;;;;;;-145.50;100.00;65435.88;5080743;28;20135;-66
2022/05/17 07:51:52;;;;;;;15.43;6.93;;;;;;;-145.50;100.00;65435.88;5080424;28;20052;-67
2022/05/17 07:54:19;;;;;;;11.52;7.20;;;;;;;-145.50;100.00;65435.88;5065195;28;20055;-65
2022/05/17 07:56:45;;;;;;;13.65;6.82;;;;;;;-145.50;100.00;65435.88;5064184;28;20421;-67
2022/05/17 07:59:12;;;;;;;11.30;6.78;;;;;;;-145.50;100.00;65435.88;5052562;28;20048;-67
2022/05/17 08:01:38;;;;;;;12.30;7.20;;;;;;;-145.50;100.00;65435.88;5068890;28;20386;-67
2022/05/17 08:04:05;;;;;;;12.10;6.15;;;;;;;-145.50;100.00;65435.88;5068083;28;20052;-66
2022/05/17 08:06:31;;;;;;;15.68;7.63;;;;;;;-145.50;100.00;65435.88;5055051;28;20516;-65
2022/05/17 08:08:58;;;;;;;14.40;6.95;;;;;;;-145.50;100.00;65435.88;5065445;28;20062;-66
2022/05/17 08:11:24;;;;;;;17.55;7.10;;;;;;;-145.50;100.00;65435.88;5064494;28;20052;-67
2022/05/17 08:13:50;;;;;;;11.23;6.50;;;;;;;-145.50;100.00;65435.88;5079275;28;20160;-66
2022/05/17 08:16:38;;;;;;;13.35;6.95;;;;;;;-145.50;100.00;65435.88;5059585;28;20709;-66
2022/05/17 08:19:04;;;;;;;14.38;7.45;;;;;;;-145.50;100.00;65435.88;5078179;28;20408;-66
2022/05/17 08:21:31;;;;;;;17.42;7.13;;;;;;;-145.50;100.00;65435.88;5069320;28;20058;-66
2022/05/17 08:23:57;;;;;;;12.90;6.60;;;;;;;-145.50;100.00;65435.88;5057363;28;20403;-66
2022/05/17 08:29:10;;;;;;;13.18;6.97;;;;;;;-145.50;100.00;65435.88;5072312;28;20146;-66
2022/05/17 08:31:37;;;;;;;18.17;7.82;;;;;;;-145.50;100.00;65435.88;5067709;28;20123;-66
2022/05/17 08:34:03;;;;;;;12.85;6.88;;;;;;;-145.50;100.00;65435.88;5036540;28;20421;-67
2022/05/17 08:36:30;;;;;;;14.88;7.10;;;;;;;-145.50;100.00;65435.88;5091347;28;20273;-65
2022/05/17 08:38:56;;;;;;;11.98;6.43;;;;;;;-145.50;100.00;65435.88;5086811;28;20051;-66
2022/05/17 08:41:51;;;;;;;19.15;7.38;;;;;;;-145.50;100.00;65435.88;5100832;28;20048;-67
2022/05/17 08:44:23;;;;;;;10.85;5.85;;;;;;;-145.50;100.00;65435.88;5101385;28;20055;-66
2022/05/17 08:47:09;;;;;;;14.48;6.47;;;;;;;-145.50;100.00;65435.88;5085607;28;20388;-67
2022/05/17 08:50:00;;;;;;;15.32;6.00;;;;;;;-145.50;100.00;65435.88;5079302;28;20044;-66
2022/05/17 08:52:28;;;;;;;15.55;5.68;;;;;;;-145.50;100.00;65435.88;5064398;28;20058;-66
2022/05/17 08:54:58;;;;;;;13.82;5.07;;;;;;;-145.50;100.00;65435.88;5073972;28;20052;-67
2022/05/17 08:57:37;;;;;;;12.82;5.50;;;;;;;-145.50;100.00;65435.88;5063767;28;20058;-67
2022/05/17 09:00:21;;;;;;;17.48;5.65;;;;;;;-145.50;100.00;65435.88;5079401;28;20081;-67
2022/05/17 09:03:00;;;;;;;13.40;5.55;;;;;;;-145.50;100.00;65435.88;5071212;28;20507;-67
2022/05/17 09:05:34;;;;;;;15.43;5.60;;;;;;;-145.50;100.00;65435.88;5077568;28;20463;-67
2022/05/17 09:08:18;;;;;;;12.25;5.00;;;;;;;-145.50;100.00;65435.88;5081638;28;20145;-67
2022/05/17 09:10:56;;;;;;;15.15;5.40;;;;;;;-145.50;100.00;65435.88;5079740;28;20054;-67
2022/05/17 09:13:46;;;;;;;11.85;5.07;;;;;;;-145.50;100.00;65435.88;5073441;28;20056;-67
2022/05/17 09:16:39;;;;;;;14.85;4.80;;;;;;;-145.50;100.00;65435.88;5079633;28;20048;-67
2022/05/17 09:19:06;;;;;;;11.65;4.57;;;;;;;-145.50;100.00;65435.88;5067019;28;20989;-67
2022/05/17 09:21:36;;;;;;;12.82;3.53;;;;;;;-145.50;100.00;65435.88;5077327;28;20102;-67
2022/05/17 09:24:06;;;;;;;10.15;2.75;;;;;;;-145.50;100.00;65435.88;5080397;28;20685;-67
2022/05/17 09:26:33;;;;;;;11.57;3.00;;;;;;;-145.50;100.00;65435.88;5073356;28;20139;-67
2022/05/17 09:29:20;;;;;;;13.82;4.20;;;;;;;-145.50;100.00;65435.88;5061378;28;20060;-67
2022/05/17 09:32:01;;;;;;;11.77;3.63;;;;;;;-145.50;100.00;65435.88;5051570;28;20366;-67
2022/05/17 09:34:43;;;;;;;11.10;4.03;;;;;;;-145.50;100.00;65435.88;5070956;28;20052;-67
2022/05/17 09:37:19;;;;;;;10.80;3.28;;;;;;;-145.50;100.00;65435.88;5071324;28;20471;-67
2022/05/17 09:39:51;;;;;;;12.02;2.60;;;;;;;-145.50;100.00;65435.88;5078996;28;20078;-67
2022/05/17 09:42:29;;;;;;;9.05;2.50;;;;;;;-145.50;100.00;65435.88;5071552;28;20156;-67
2022/05/17 09:45:02;;;;;;;10.80;3.00;;;;;;;-145.50;100.00;65435.88;5082901;28;20091;-66
2022/05/17 09:47:33;;;;;;;16.08;4.38;;;;;;;-145.50;100.00;65435.88;5062913;28;20573;-66
2022/05/17 09:53:21;;;;;;;12.45;4.50;;;;;;;-145.50;100.00;65435.88;5064641;28;20084;-67
2022/05/17 09:55:55;;;;;;;13.05;5.63;;;;;;;-145.50;100.00;65435.88;5033942;28;20664;-67
2022/05/17 09:58:39;;;;;;;10.63;4.50;;;;;;;-145.50;100.00;65435.88;5065828;28;20052;-66
2022/05/17 10:01:16;;;;;;;16.25;4.65;;;;;;;-145.50;100.00;65435.88;5049847;28;20580;-67
2022/05/17 10:03:58;;;;;;;12.65;4.57;;;;;;;-145.50;100.00;65435.88;5062232;28;20052;-67
2022/05/17 10:06:35;;;;;;;9.25;4.25;;;;;;;-145.50;100.00;65435.88;5069374;28;20056;-67
2022/05/17 10:09:04;;;;;;;12.75;3.97;;;;;;;-145.50;100.00;65435.88;5074397;28;20058;-67
2022/05/17 10:11:39;;;;;;;10.95;3.60;;;;;;;-145.50;100.00;65435.88;5063823;28;20053;-67
2022/05/17 10:14:19;;;;;;;13.02;3.50;;;;;;;-145.50;100.00;65435.88;5066689;28;20511;-67
2022/05/17 10:17:00;;;;;;;13.10;4.18;;;;;;;-145.50;100.00;65435.88;5055820;28;20105;-66
2022/05/17 10:19:50;;;;;;;10.07;4.05;;;;;;;-145.50;100.00;65435.88;5068951;28;20048;-67
2022/05/17 10:22:22;;;;;;;14.02;5.68;;;;;;;-145.50;100.00;65435.88;5069064;28;20068;-67
2022/05/17 10:24:59;;;;;;;14.90;5.47;;;;;;;-145.50;100.00;65435.88;5070426;28;20101;-67
2022/05/17 10:27:45;;;;;;;13.77;5.07;;;;;;;-145.50;100.00;65435.88;5074243;28;20101;-67
2022/05/17 10:30:16;;;;;;;11.45;5.05;;;;;;;-145.50;100.00;65435.88;5071756;28;20433;-66
2022/05/17 10:33:01;;;;;;;14.90;5.45;;;;;;;-145.50;100.00;65435.88;5067909;28;20044;-69
2022/05/17 10:35:33;;;;;;;22.05;6.10;;;;;;;-145.50;100.00;65435.88;5066787;28;20147;-66
2022/05/17 10:38:13;;;;;;;11.77;4.85;;;;;;;-145.50;100.00;65435.88;5060040;28;20057;-67
2022/05/17 10:40:46;;;;;;;12.63;5.88;;;;;;;-145.50;100.00;65435.88;5049988;28;20056;-67
2022/05/17 10:43:22;;;;;;;12.85;5.95;;;;;;;-145.50;100.00;65435.88;5062969;28;20138;-67
2022/05/17 10:46:04;;;;;;;14.52;5.65;;;;;;;-145.50;100.00;65435.88;5061960;28;20135;-67
2022/05/17 10:49:08;;;;;;;14.90;5.78;;;;;;;-145.50;100.00;65435.88;5072478;28;20169;-67
2022/05/17 10:52:03;;;;;;;15.50;6.03;;;;;;;-145.50;100.00;65435.88;5057396;28;20058;-67
2022/05/17 10:55:06;;;;;;;15.88;6.78;;;;;;;-145.50;100.00;65435.88;5060983;28;20082;-67
2022/05/17 10:58:04;;;;;;;14.70;5.80;;;;;;;-145.50;100.00;65435.88;5054048;28;20079;-67
2022/05/17 11:00:37;;;;;;;9.52;3.90;;;;;;;-145.50;100.00;65435.88;5043269;28;20453;-67
2022/05/17 11:03:29;;;;;;;11.68;4.75;;;;;;;-145.50;100.00;65435.88;5052080;28;20364;-68
2022/05/17 11:06:21;;;;;;;8.63;4.15;;;;;;;-145.50;100.00;65435.88;5073910;28;20055;-67
2022/05/17 11:09:05;;;;;;;14.75;6.13;;;;;;;-145.50;100.00;65435.88;5058292;28;20049;-68
2022/05/17 11:12:09;;;;;;;12.55;5.50;;;;;;;-145.50;100.00;65435.88;5075243;28;20133;-67
2022/05/17 11:14:56;;;;;;;9.88;4.85;;;;;;;-145.50;100.00;65435.88;5037312;28;20060;-67
2022/05/17 11:17:34;;;;;;;13.57;4.27;;;;;;;-145.50;100.00;65435.88;5069492;28;20336;-67
2022/05/17 11:20:22;;;;;;;11.75;4.88;;;;;;;-145.50;100.00;65435.88;5053225;28;20052;-66
2022/05/17 11:23:21;;;;;;;14.35;5.15;;;;;;;-145.50;100.00;65435.88;5061025;28;20422;-66
2022/05/17 11:26:35;;;;;;;13.38;5.05;;;;;;;-145.50;100.00;65435.88;5053251;28;20081;-66
2022/05/17 11:29:23;;;;;;;10.48;4.55;;;;;;;-145.50;100.00;65435.88;5013557;28;20044;-66
2022/05/17 11:32:00;;;;;;;10.60;4.13;;;;;;;-145.50;100.00;65435.88;5046170;28;20054;-66
2022/05/17 11:34:29;;;;;;;14.70;4.73;;;;;;;-145.50;100.00;65435.88;5060212;28;20386;-66